Time;durP1;ratioP1;P1;durP2;ratioP2;P2;SDS_P1;SDS_P2;PMS_P1;PMS_P2;Temp;Humidity;BMP_temperature;BMP_pressure;BME280_temperature;BME280_humidity;BME280_pressure;Samples;Min_cycle;Max_cycle;Signal;HPM_P1;HPM_P2
2023/06/23 00:00:51;;;;;;;5.65;2.90;;;;;;;;;;5024128;28;20076;-84
2023/06/23 00:03:17;;;;;;;4.95;2.83;;;;;;;;;;5029540;28;20040;-83
2023/06/23 00:05:44;;;;;;;4.13;2.95;;;;;;;;;;5030928;28;20047;-83
2023/06/23 00:08:10;;;;;;;4.10;2.60;;;;;;;;;;5031940;28;20208;-84
2023/06/23 00:10:36;;;;;;;2.75;2.55;;;;;;;;;;5026266;28;20041;-82
2023/06/23 00:13:05;;;;;;;5.05;2.85;;;;;;;;;;5024788;28;20111;-83
2023/06/23 00:15:31;;;;;;;2.80;2.60;;;;;;;;;;5019014;28;20041;-82
2023/06/23 00:18:00;;;;;;;1.92;1.83;;;;;;;;;;5021811;28;20064;-83
2023/06/23 00:20:26;;;;;;;3.28;2.97;;;;;;;;;;5028734;28;20030;-84
2023/06/23 00:22:52;;;;;;;3.22;2.33;;;;;;;;;;5026990;28;20041;-82
2023/06/23 00:25:18;;;;;;;2.97;2.78;;;;;;;;;;5028223;28;20049;-81
2023/06/23 00:27:45;;;;;;;4.05;2.55;;;;;;;;;;5030166;28;20037;-82
2023/06/23 00:30:12;;;;;;;4.10;2.90;;;;;;;;;;5033849;28;20050;-82
2023/06/23 00:32:38;;;;;;;3.63;2.60;;;;;;;;;;5035599;28;20040;-81
2023/06/23 00:35:08;;;;;;;6.32;2.40;;;;;;;;;;5017377;28;20013;-83
2023/06/23 00:37:38;;;;;;;9.07;2.60;;;;;;;;;;5025769;28;20034;-82
2023/06/23 00:40:07;;;;;;;4.80;3.10;;;;;;;;;;5021837;28;20037;-84
2023/06/23 00:42:44;;;;;;;2.65;2.45;;;;;;;;;;5017756;28;20116;-81
2023/06/23 00:45:11;;;;;;;2.90;2.70;;;;;;;;;;5021300;28;20074;-82
2023/06/23 00:47:37;;;;;;;8.93;2.22;;;;;;;;;;5026876;28;20033;-83
2023/06/23 00:50:03;;;;;;;4.18;2.72;;;;;;;;;;5022667;28;20130;-82
2023/06/23 00:52:29;;;;;;;3.13;2.92;;;;;;;;;;4990519;28;20038;-82
2023/06/23 00:54:55;;;;;;;4.40;3.10;;;;;;;;;;5026029;28;20029;-80
2023/06/23 00:57:21;;;;;;;4.47;3.15;;;;;;;;;;5025626;28;20049;-81
2023/06/23 00:59:47;;;;;;;4.05;3.05;;;;;;;;;;5025378;28;20037;-83
2023/06/23 01:02:13;;;;;;;3.65;3.10;;;;;;;;;;5025774;28;20045;-82
2023/06/23 01:04:40;;;;;;;2.22;2.10;;;;;;;;;;5008083;28;20029;-82
2023/06/23 01:07:12;;;;;;;3.15;2.53;;;;;;;;;;5022115;28;20097;-82
2023/06/23 01:10:02;;;;;;;5.43;2.60;;;;;;;;;;5023332;28;20531;-83
2023/06/23 01:12:34;;;;;;;2.92;2.30;;;;;;;;;;4998008;28;20044;-82
2023/06/23 01:15:03;;;;;;;6.30;3.00;;;;;;;;;;5024775;28;20090;-83
2023/06/23 01:17:33;;;;;;;5.30;2.88;;;;;;;;;;5022405;28;20045;-82
2023/06/23 01:20:16;;;;;;;6.15;2.90;;;;;;;;;;5021250;28;20045;-82
2023/06/23 01:22:58;;;;;;;13.45;3.15;;;;;;;;;;5004340;28;20034;-81
2023/06/23 01:25:36;;;;;;;4.15;3.17;;;;;;;;;;5003541;28;20046;-82
2023/06/23 01:28:14;;;;;;;7.93;3.47;;;;;;;;;;5021395;28;20602;-83
2023/06/23 01:30:40;;;;;;;18.23;3.60;;;;;;;;;;5028948;28;20040;-81
2023/06/23 01:33:13;;;;;;;7.05;3.30;;;;;;;;;;5033500;28;20033;-83
2023/06/23 01:35:41;;;;;;;6.30;3.33;;;;;;;;;;5013774;28;20029;-82
2023/06/23 01:38:10;;;;;;;3.15;2.85;;;;;;;;;;5029849;28;20040;-82
2023/06/23 01:40:36;;;;;;;12.52;3.65;;;;;;;;;;5026501;28;20082;-80
2023/06/23 01:43:04;;;;;;;14.32;4.03;;;;;;;;;;5023993;28;20042;-83
2023/06/23 01:45:33;;;;;;;2.70;2.47;;;;;;;;;;5020303;28;20034;-83
2023/06/23 01:48:01;;;;;;;5.93;3.72;;;;;;;;;;5017431;28;20512;-82
2023/06/23 01:50:26;;;;;;;5.40;3.22;;;;;;;;;;5000502;28;20084;-83
2023/06/23 01:52:53;;;;;;;6.93;3.00;;;;;;;;;;5004779;28;20038;-84
2023/06/23 01:55:19;;;;;;;3.85;3.45;;;;;;;;;;5021118;28;20030;-81
2023/06/23 01:57:46;;;;;;;5.68;3.50;;;;;;;;;;5024605;28;20300;-81
2023/06/23 02:00:13;;;;;;;3.65;2.60;;;;;;;;;;5031293;28;20030;-83
2023/06/23 02:02:43;;;;;;;6.00;3.40;;;;;;;;;;5037204;28;20045;-83
2023/06/23 02:05:11;;;;;;;5.90;3.40;;;;;;;;;;5016119;28;20044;-83
2023/06/23 02:07:37;;;;;;;3.85;2.65;;;;;;;;;;5030938;28;20038;-84
2023/06/23 02:10:04;;;;;;;5.13;3.22;;;;;;;;;;5033860;28;20045;-83
2023/06/23 02:12:30;;;;;;;6.07;3.60;;;;;;;;;;5013759;28;20097;-84
2023/06/23 02:14:56;;;;;;;3.92;3.58;;;;;;;;;;5035739;28;20033;-82
2023/06/23 02:17:22;;;;;;;7.20;3.63;;;;;;;;;;5037981;28;20021;-85
2023/06/23 02:19:49;;;;;;;6.63;3.35;;;;;;;;;;5039313;28;20029;-84
2023/06/23 02:22:17;;;;;;;3.95;3.50;;;;;;;;;;5038388;28;20034;-84
2023/06/23 02:24:43;;;;;;;4.93;3.17;;;;;;;;;;5038845;28;20037;-85
2023/06/23 02:27:09;;;;;;;3.17;2.97;;;;;;;;;;5039485;28;20118;-85
2023/06/23 02:29:37;;;;;;;4.13;3.28;;;;;;;;;;5039247;28;20069;-83
2023/06/23 02:32:04;;;;;;;5.07;3.35;;;;;;;;;;5037644;28;20057;-85
2023/06/23 02:34:30;;;;;;;3.53;3.30;;;;;;;;;;5037008;28;20017;-86
2023/06/23 02:36:58;;;;;;;3.60;3.40;;;;;;;;;;5036803;28;20024;-82
2023/06/23 02:39:25;;;;;;;4.35;3.65;;;;;;;;;;5036024;28;20049;-85
2023/06/23 02:41:52;;;;;;;4.07;3.78;;;;;;;;;;5027042;28;20282;-83
2023/06/23 02:44:30;;;;;;;3.40;3.15;;;;;;;;;;5024009;28;20041;-83
2023/06/23 02:46:56;;;;;;;3.50;3.30;;;;;;;;;;5013256;28;20057;-81
2023/06/23 02:49:22;;;;;;;5.80;3.30;;;;;;;;;;5031136;28;20141;-82
2023/06/23 02:51:49;;;;;;;3.67;3.10;;;;;;;;;;5033309;28;20033;-82
2023/06/23 02:54:17;;;;;;;3.53;3.22;;;;;;;;;;5013957;28;20037;-80
2023/06/23 02:56:43;;;;;;;3.58;3.38;;;;;;;;;;5030798;28;20041;-83
2023/06/23 02:59:18;;;;;;;3.58;3.28;;;;;;;;;;5030950;28;20045;-84
2023/06/23 03:01:45;;;;;;;4.53;4.22;;;;;;;;;;5027386;28;20057;-83
2023/06/23 03:04:14;;;;;;;4.50;4.15;;;;;;;;;;5028609;28;20033;-83
2023/06/23 03:06:40;;;;;;;3.88;3.63;;;;;;;;;;5029255;28;20048;-84
2023/06/23 03:09:06;;;;;;;4.22;3.80;;;;;;;;;;5030303;28;20045;-83
2023/06/23 03:11:32;;;;;;;5.45;3.47;;;;;;;;;;5033204;28;20034;-85
2023/06/23 03:13:58;;;;;;;4.53;3.50;;;;;;;;;;5030774;28;20041;-84
2023/06/23 03:16:31;;;;;;;3.53;3.28;;;;;;;;;;5029375;28;20389;-83
2023/06/23 03:19:18;;;;;;;4.22;3.38;;;;;;;;;;5028844;28;20046;-83
2023/06/23 03:21:45;;;;;;;5.68;3.30;;;;;;;;;;5032312;28;20022;-84
2023/06/23 03:24:12;;;;;;;6.47;3.97;;;;;;;;;;5035852;28;20117;-83
2023/06/23 03:26:40;;;;;;;5.20;3.60;;;;;;;;;;5032043;28;20042;-83
2023/06/23 03:29:06;;;;;;;3.60;3.30;;;;;;;;;;5013735;28;20101;-84
2023/06/23 03:31:33;;;;;;;4.20;3.90;;;;;;;;;;5029481;28;20041;-84
2023/06/23 03:33:59;;;;;;;4.00;3.65;;;;;;;;;;5031325;28;20089;-85
2023/06/23 03:36:25;;;;;;;4.00;3.65;;;;;;;;;;5030317;28;20049;-83
2023/06/23 03:39:11;;;;;;;6.72;4.40;;;;;;;;;;5027223;28;20057;-83
2023/06/23 03:41:37;;;;;;;5.18;4.60;;;;;;;;;;5035436;28;20037;-83
2023/06/23 03:44:23;;;;;;;4.35;3.95;;;;;;;;;;5034463;28;20030;-84
2023/06/23 03:46:54;;;;;;;4.13;3.90;;;;;;;;;;5031547;28;20042;-84
2023/06/23 03:49:26;;;;;;;8.70;4.57;;;;;;;;;;5030874;28;20048;-83
2023/06/23 03:51:52;;;;;;;4.07;3.67;;;;;;;;;;5031409;28;20076;-82
2023/06/23 03:54:18;;;;;;;4.93;4.13;;;;;;;;;;5031287;28;20042;-82
2023/06/23 03:56:44;;;;;;;5.15;4.30;;;;;;;;;;5031717;28;20105;-85
2023/06/23 03:59:10;;;;;;;4.95;4.25;;;;;;;;;;5013830;28;20053;-83
2023/06/23 04:01:36;;;;;;;5.03;4.57;;;;;;;;;;5029636;28;20049;-83
2023/06/23 04:04:02;;;;;;;8.18;4.45;;;;;;;;;;5031379;28;20073;-84
2023/06/23 04:06:29;;;;;;;5.75;5.03;;;;;;;;;;5030881;28;20026;-84
2023/06/23 04:08:55;;;;;;;9.30;5.47;;;;;;;;;;5013116;28;20056;-84
2023/06/23 04:11:21;;;;;;;20.90;6.18;;;;;;;;;;5030442;28;20097;-83
2023/06/23 04:13:47;;;;;;;18.00;6.95;;;;;;;;;;5027915;28;20066;-84
2023/06/23 04:16:13;;;;;;;22.33;6.82;;;;;;;;;;5027731;28;20052;-84
2023/06/23 04:18:39;;;;;;;19.75;7.43;;;;;;;;;;5027789;28;20098;-84
2023/06/23 04:21:05;;;;;;;15.85;6.43;;;;;;;;;;5025459;28;20073;-84
2023/06/23 04:23:31;;;;;;;23.92;6.38;;;;;;;;;;5031458;28;20037;-83
2023/06/23 04:25:57;;;;;;;13.18;6.68;;;;;;;;;;5021968;28;20029;-82
2023/06/23 04:28:23;;;;;;;21.17;6.10;;;;;;;;;;5013067;28;20038;-83
2023/06/23 04:30:49;;;;;;;19.58;5.72;;;;;;;;;;5017715;28;20064;-83
2023/06/23 04:33:15;;;;;;;14.60;5.63;;;;;;;;;;5017417;28;20069;-83
2023/06/23 04:35:41;;;;;;;15.50;6.05;;;;;;;;;;5019000;28;20124;-82
2023/06/23 04:38:08;;;;;;;11.32;5.35;;;;;;;;;;5019326;28;20073;-83
2023/06/23 04:40:38;;;;;;;9.68;5.30;;;;;;;;;;5020472;28;20065;-84
2023/06/23 04:43:12;;;;;;;7.07;4.88;;;;;;;;;;5019340;28;20033;-83
2023/06/23 04:45:46;;;;;;;8.35;5.82;;;;;;;;;;5026717;28;20052;-83
2023/06/23 04:48:13;;;;;;;9.15;4.90;;;;;;;;;;5008939;28;20037;-84
2023/06/23 04:50:39;;;;;;;8.10;5.05;;;;;;;;;;5024332;28;20037;-83
2023/06/23 04:53:06;;;;;;;9.15;4.82;;;;;;;;;;5020727;28;20042;-82
2023/06/23 04:55:34;;;;;;;5.43;4.93;;;;;;;;;;5016135;28;20520;-82
2023/06/23 04:58:02;;;;;;;5.97;4.47;;;;;;;;;;5016096;28;20037;-83
2023/06/23 05:00:28;;;;;;;6.00;5.38;;;;;;;;;;5020395;28;20046;-84
2023/06/23 05:02:55;;;;;;;5.40;5.00;;;;;;;;;;5022358;28;20038;-82
2023/06/23 05:05:25;;;;;;;8.05;4.75;;;;;;;;;;5021905;28;20095;-83
2023/06/23 05:07:51;;;;;;;10.07;5.90;;;;;;;;;;5021134;28;20049;-82
2023/06/23 05:10:18;;;;;;;6.45;5.20;;;;;;;;;;5021253;28;20057;-83
2023/06/23 05:12:45;;;;;;;10.10;5.78;;;;;;;;;;5009229;28;20045;-83
2023/06/23 05:15:11;;;;;;;6.53;4.90;;;;;;;;;;5030176;28;20038;-83
2023/06/23 05:17:38;;;;;;;7.45;5.45;;;;;;;;;;5019515;28;20037;-83
2023/06/23 05:20:05;;;;;;;7.65;6.53;;;;;;;;;;5015324;28;20042;-83
2023/06/23 05:22:30;;;;;;;9.32;5.97;;;;;;;;;;4985301;28;20227;-82
2023/06/23 05:24:59;;;;;;;10.10;4.25;;;;;;;;;;5018304;28;20097;-83
2023/06/23 05:27:25;;;;;;;6.82;5.68;;;;;;;;;;5018402;28;20037;-83
2023/06/23 05:29:51;;;;;;;8.75;5.70;;;;;;;;;;5021818;28;20058;-84
2023/06/23 05:32:17;;;;;;;7.47;6.78;;;;;;;;;;5024077;28;20041;-82
2023/06/23 05:34:43;;;;;;;7.70;5.18;;;;;;;;;;5020471;28;20048;-83
2023/06/23 05:37:09;;;;;;;8.25;6.18;;;;;;;;;;5024032;28;20061;-84
2023/06/23 05:39:35;;;;;;;6.70;6.10;;;;;;;;;;5028132;28;20042;-83
2023/06/23 05:42:02;;;;;;;13.45;6.63;;;;;;;;;;5027451;28;20602;-83
2023/06/23 05:44:27;;;;;;;7.25;6.55;;;;;;;;;;5028426;28;20076;-84
2023/06/23 05:46:55;;;;;;;9.32;6.25;;;;;;;;;;5026648;28;20034;-85
2023/06/23 05:49:21;;;;;;;7.15;6.25;;;;;;;;;;5029151;28;20038;-84
2023/06/23 05:51:48;;;;;;;7.93;7.10;;;;;;;;;;5029778;28;20042;-85
2023/06/23 05:54:14;;;;;;;7.93;7.13;;;;;;;;;;5030002;28;20030;-85
2023/06/23 05:56:42;;;;;;;7.93;6.43;;;;;;;;;;5025800;28;20084;-82
2023/06/23 05:59:09;;;;;;;7.63;6.93;;;;;;;;;;5020683;28;20042;-82
2023/06/23 06:01:37;;;;;;;8.98;7.50;;;;;;;;;;4991398;28;20072;-83
2023/06/23 06:04:07;;;;;;;8.85;7.53;;;;;;;;;;5021767;28;20041;-83
2023/06/23 06:06:34;;;;;;;7.88;7.28;;;;;;;;;;5026747;28;20145;-84
2023/06/23 06:09:00;;;;;;;8.95;6.85;;;;;;;;;;5028794;28;20038;-84
2023/06/23 06:11:26;;;;;;;8.23;7.47;;;;;;;;;;5025400;28;20073;-83
2023/06/23 06:13:52;;;;;;;9.82;7.80;;;;;;;;;;5001458;28;20030;-81
2023/06/23 06:16:18;;;;;;;8.60;7.68;;;;;;;;;;5016150;28;20173;-82
2023/06/23 06:18:44;;;;;;;8.10;7.38;;;;;;;;;;5016152;28;20061;-82
2023/06/23 06:21:10;;;;;;;7.72;7.07;;;;;;;;;;5017113;28;20034;-83
2023/06/23 06:23:36;;;;;;;13.93;8.70;;;;;;;;;;5018080;28;20413;-82
2023/06/23 06:26:03;;;;;;;8.40;7.53;;;;;;;;;;5017096;28;20069;-83
2023/06/23 06:28:29;;;;;;;8.98;8.07;;;;;;;;;;5018754;28;20057;-83
2023/06/23 06:30:55;;;;;;;13.07;10.23;;;;;;;;;;5017890;28;20065;-82
2023/06/23 06:33:20;;;;;;;10.07;9.18;;;;;;;;;;5015772;28;20033;-81
2023/06/23 06:35:47;;;;;;;9.90;8.90;;;;;;;;;;5015292;28;20040;-82
2023/06/23 06:38:13;;;;;;;10.20;8.68;;;;;;;;;;5016987;28;20536;-82
2023/06/23 06:40:39;;;;;;;14.13;9.43;;;;;;;;;;5022539;28;20045;-81
2023/06/23 06:43:05;;;;;;;8.20;7.45;;;;;;;;;;5025345;28;20053;-82
2023/06/23 06:45:33;;;;;;;9.43;8.63;;;;;;;;;;5013220;28;20038;-83
2023/06/23 06:47:59;;;;;;;17.40;10.20;;;;;;;;;;5021752;28;20061;-82
2023/06/23 06:50:25;;;;;;;11.25;10.10;;;;;;;;;;5021101;28;20034;-84
2023/06/23 06:52:51;;;;;;;12.07;9.55;;;;;;;;;;5020743;28;20049;-83
2023/06/23 06:55:18;;;;;;;11.32;9.52;;;;;;;;;;5017721;28;20183;-83
2023/06/23 06:57:46;;;;;;;10.18;8.80;;;;;;;;;;5014328;28;20508;-82
2023/06/23 07:00:13;;;;;;;14.82;9.88;;;;;;;;;;5013906;28;20053;-83
2023/06/23 07:02:39;;;;;;;17.40;11.10;;;;;;;;;;5019621;28;20045;-79
2023/06/23 07:05:05;;;;;;;11.98;10.80;;;;;;;;;;5027278;28;20182;-81
2023/06/23 07:07:31;;;;;;;12.98;11.82;;;;;;;;;;5014748;28;20149;-82
2023/06/23 07:09:58;;;;;;;14.57;10.82;;;;;;;;;;5013677;28;20084;-82
2023/06/23 07:12:24;;;;;;;14.57;10.95;;;;;;;;;;5014009;28;20061;-82
2023/06/23 07:14:50;;;;;;;17.30;14.40;;;;;;;;;;5016401;28;20034;-83
2023/06/23 07:17:16;;;;;;;14.52;12.10;;;;;;;;;;5014205;28;20032;-80
2023/06/23 07:19:42;;;;;;;14.50;11.90;;;;;;;;;;5012627;28;20046;-81
2023/06/23 07:22:09;;;;;;;17.67;11.98;;;;;;;;;;5012749;28;20038;-81
2023/06/23 07:24:35;;;;;;;16.40;12.15;;;;;;;;;;5012890;28;20038;-81
2023/06/23 07:27:01;;;;;;;16.63;11.95;;;;;;;;;;5012647;28;20563;-82
2023/06/23 07:29:26;;;;;;;15.07;10.55;;;;;;;;;;5012471;28;20085;-81
2023/06/23 07:31:52;;;;;;;17.98;10.90;;;;;;;;;;5011192;28;20060;-80
2023/06/23 07:34:18;;;;;;;8.98;7.50;;;;;;;;;;5012283;28;20034;-82
2023/06/23 07:36:45;;;;;;;12.73;11.07;;;;;;;;;;5011006;28;20037;-82
2023/06/23 07:39:11;;;;;;;20.15;10.18;;;;;;;;;;5010932;28;20045;-81
2023/06/23 07:41:37;;;;;;;12.40;10.00;;;;;;;;;;5011414;28;20038;-81
2023/06/23 07:44:03;;;;;;;12.45;9.25;;;;;;;;;;5011599;28;20099;-81
2023/06/23 07:46:30;;;;;;;10.18;9.20;;;;;;;;;;5012484;28;20053;-80
2023/06/23 07:48:56;;;;;;;9.95;9.13;;;;;;;;;;5012853;28;20030;-81
2023/06/23 07:51:22;;;;;;;11.68;10.63;;;;;;;;;;5010815;28;20111;-82
2023/06/23 07:53:48;;;;;;;10.85;10.02;;;;;;;;;;5011123;28;20026;-81
2023/06/23 07:56:14;;;;;;;12.57;11.27;;;;;;;;;;5012463;28;20045;-82
2023/06/23 07:58:40;;;;;;;9.15;8.35;;;;;;;;;;5012972;28;20140;-81
2023/06/23 08:01:06;;;;;;;13.40;11.77;;;;;;;;;;5013058;28;20046;-81
2023/06/23 08:03:33;;;;;;;8.95;8.07;;;;;;;;;;5011386;28;20030;-81
2023/06/23 08:06:00;;;;;;;9.60;8.90;;;;;;;;;;5012916;28;20037;-81
2023/06/23 08:08:27;;;;;;;7.45;5.70;;;;;;;;;;5017436;28;20092;-82
2023/06/23 08:10:52;;;;;;;10.52;7.55;;;;;;;;;;4995271;28;20492;-82
2023/06/23 08:13:18;;;;;;;15.27;8.32;;;;;;;;;;5012939;28;20041;-81
2023/06/23 08:15:46;;;;;;;8.23;7.32;;;;;;;;;;5012557;28;20048;-81
2023/06/23 08:18:13;;;;;;;10.75;8.00;;;;;;;;;;5011004;28;20037;-81
2023/06/23 08:20:39;;;;;;;12.68;8.52;;;;;;;;;;5013139;28;20650;-81
2023/06/23 08:23:05;;;;;;;7.70;6.88;;;;;;;;;;5012385;28;20037;-81
2023/06/23 08:25:32;;;;;;;5.78;5.38;;;;;;;;;;5013115;28;20042;-82
2023/06/23 08:27:58;;;;;;;7.80;7.20;;;;;;;;;;5013752;28;20120;-81
2023/06/23 08:30:28;;;;;;;6.90;6.45;;;;;;;;;;5013650;28;20073;-82
2023/06/23 08:32:55;;;;;;;6.82;6.22;;;;;;;;;;5014833;28;20038;-82
2023/06/23 08:35:21;;;;;;;8.43;7.47;;;;;;;;;;5014257;28;20085;-81
2023/06/23 08:37:47;;;;;;;7.55;6.95;;;;;;;;;;5014676;28;20046;-83
2023/06/23 08:40:13;;;;;;;8.52;7.93;;;;;;;;;;5012766;28;20100;-81
2023/06/23 08:42:40;;;;;;;7.55;7.05;;;;;;;;;;5013127;28;20535;-82
2023/06/23 08:45:06;;;;;;;9.00;8.30;;;;;;;;;;5011835;28;20034;-81
2023/06/23 08:47:38;;;;;;;9.02;8.13;;;;;;;;;;5016461;28;20522;-82
2023/06/23 08:50:04;;;;;;;7.70;6.95;;;;;;;;;;5016945;28;20562;-82
2023/06/23 08:52:31;;;;;;;8.80;8.05;;;;;;;;;;5026355;28;20089;-81
2023/06/23 08:54:57;;;;;;;8.93;8.23;;;;;;;;;;5016616;28;20076;-81
2023/06/23 08:57:24;;;;;;;8.55;7.40;;;;;;;;;;5015514;28;20034;-81
2023/06/23 08:59:50;;;;;;;6.82;6.30;;;;;;;;;;5027986;28;20124;-82
2023/06/23 09:02:16;;;;;;;5.53;5.13;;;;;;;;;;5028316;28;20049;-80
2023/06/23 09:04:43;;;;;;;8.57;7.78;;;;;;;;;;5012007;28;20037;-81
2023/06/23 09:07:09;;;;;;;9.50;8.80;;;;;;;;;;5030380;28;20129;-81
2023/06/23 09:09:34;;;;;;;6.53;5.70;;;;;;;;;;5033494;28;20029;-82
2023/06/23 09:12:01;;;;;;;9.45;8.57;;;;;;;;;;5032401;28;20029;-81
2023/06/23 09:14:30;;;;;;;8.65;7.85;;;;;;;;;;5027748;28;20605;-80
2023/06/23 09:16:57;;;;;;;10.10;9.10;;;;;;;;;;5012485;28;20029;-79
2023/06/23 09:19:23;;;;;;;9.65;8.75;;;;;;;;;;5025980;28;20068;-80
2023/06/23 09:21:49;;;;;;;10.48;9.70;;;;;;;;;;5002323;28;20040;-82
2023/06/23 09:24:15;;;;;;;9.20;8.50;;;;;;;;;;5027117;28;20030;-81
2023/06/23 09:26:48;;;;;;;9.10;8.30;;;;;;;;;;5028357;28;20098;-82
2023/06/23 09:29:15;;;;;;;10.27;9.50;;;;;;;;;;5024220;28;20065;-81
2023/06/23 09:31:42;;;;;;;12.13;11.13;;;;;;;;;;5021088;28;20062;-81
2023/06/23 09:34:08;;;;;;;11.77;10.68;;;;;;;;;;5017052;28;20125;-82
2023/06/23 09:36:34;;;;;;;11.52;10.70;;;;;;;;;;5016122;28;20026;-83
2023/06/23 09:39:01;;;;;;;13.45;12.35;;;;;;;;;;5024282;28;20053;-85
2023/06/23 09:41:31;;;;;;;11.98;11.07;;;;;;;;;;5032268;28;20040;-85
2023/06/23 09:43:57;;;;;;;11.55;10.52;;;;;;;;;;5035344;28;20026;-83
2023/06/23 09:46:22;;;;;;;13.52;12.43;;;;;;;;;;5028138;28;20052;-82
2023/06/23 09:48:49;;;;;;;13.90;12.60;;;;;;;;;;5016794;28;20033;-80
2023/06/23 09:51:18;;;;;;;12.70;11.45;;;;;;;;;;4993749;28;20034;-80
2023/06/23 09:53:44;;;;;;;13.27;12.00;;;;;;;;;;5010683;28;20037;-80
2023/06/23 09:56:14;;;;;;;12.48;11.52;;;;;;;;;;5010373;28;20567;-80
2023/06/23 09:58:40;;;;;;;11.50;10.60;;;;;;;;;;5009941;28;20124;-80
2023/06/23 10:01:08;;;;;;;13.07;11.95;;;;;;;;;;5010367;28;20285;-81
2023/06/23 10:03:44;;;;;;;10.95;9.85;;;;;;;;;;5010545;28;20034;-81
2023/06/23 10:06:32;;;;;;;14.65;13.35;;;;;;;;;;5009287;28;20497;-81
2023/06/23 10:08:58;;;;;;;11.73;9.55;;;;;;;;;;5010987;28;20040;-81
2023/06/23 10:11:37;;;;;;;10.30;9.43;;;;;;;;;;5009692;28;20038;-82
2023/06/23 10:14:06;;;;;;;13.38;12.18;;;;;;;;;;5023205;28;20040;-86
2023/06/23 10:16:34;;;;;;;15.23;14.02;;;;;;;;;;5025096;28;20037;-82
2023/06/23 10:18:59;;;;;;;12.18;11.32;;;;;;;;;;5022167;28;20119;-85
2023/06/23 10:21:25;;;;;;;6.90;4.65;;;;;;;;;;5008578;28;20615;-84
2023/06/23 10:23:53;;;;;;;6.47;5.85;;;;;;;;;;5016438;28;20037;-80
2023/06/23 10:26:19;;;;;;;6.88;5.22;;;;;;;;;;5013654;28;20038;-80
2023/06/23 10:28:46;;;;;;;3.17;2.97;;;;;;;;;;5012393;28;20048;-80
2023/06/23 10:31:12;;;;;;;3.85;3.47;;;;;;;;;;5014787;28;20530;-80
2023/06/23 10:33:38;;;;;;;3.78;3.50;;;;;;;;;;4998230;28;20042;-77
2023/06/23 10:36:06;;;;;;;3.40;3.20;;;;;;;;;;5014593;28;20040;-80
2023/06/23 10:38:32;;;;;;;4.88;4.50;;;;;;;;;;5015197;28;20034;-78
2023/06/23 10:40:59;;;;;;;5.53;5.13;;;;;;;;;;5017692;28;20060;-76
2023/06/23 10:43:25;;;;;;;6.30;5.80;;;;;;;;;;5016559;28;20090;-76
2023/06/23 10:45:51;;;;;;;5.40;5.00;;;;;;;;;;4998631;28;20065;-78
2023/06/23 10:48:18;;;;;;;6.85;6.03;;;;;;;;;;5015702;28;20037;-77
2023/06/23 10:50:45;;;;;;;5.88;5.18;;;;;;;;;;5016187;28;20041;-78
2023/06/23 10:53:14;;;;;;;6.65;6.15;;;;;;;;;;5000104;28;20185;-77
2023/06/23 10:55:41;;;;;;;7.38;6.88;;;;;;;;;;5001791;28;20084;-77
2023/06/23 10:58:08;;;;;;;10.88;10.15;;;;;;;;;;5019366;28;20034;-75
2023/06/23 11:00:34;;;;;;;11.65;10.80;;;;;;;;;;5017650;28;20105;-77
2023/06/23 11:03:00;;;;;;;11.88;10.82;;;;;;;;;;5018992;28;20042;-77
2023/06/23 11:05:27;;;;;;;13.45;12.15;;;;;;;;;;5014092;28;20060;-77
2023/06/23 11:07:59;;;;;;;15.85;14.48;;;;;;;;;;5013479;28;20485;-78
2023/06/23 11:11:05;;;;;;;13.98;12.77;;;;;;;;;;4979190;28;20037;-77
2023/06/23 11:13:44;;;;;;;13.75;12.65;;;;;;;;;;4933016;29;20043;-78
2023/06/23 11:16:11;;;;;;;13.05;11.95;;;;;;;;;;4917597;29;20044;-79
2023/06/23 11:18:37;;;;;;;11.70;10.80;;;;;;;;;;4968696;28;20076;-80
2023/06/23 11:21:16;;;;;;;10.80;9.90;;;;;;;;;;4995611;28;20501;-79
2023/06/23 11:24:17;;;;;;;11.55;10.55;;;;;;;;;;5012758;28;20037;-79
2023/06/23 11:26:55;;;;;;;11.18;10.38;;;;;;;;;;4916805;29;20430;-80
2023/06/23 11:29:21;;;;;;;10.32;9.63;;;;;;;;;;5002176;28;20054;-80
2023/06/23 11:32:06;;;;;;;10.02;9.27;;;;;;;;;;5012794;28;20042;-80
2023/06/23 11:35:09;;;;;;;10.10;9.30;;;;;;;;;;5013326;28;20038;-80
2023/06/23 11:37:35;;;;;;;9.82;9.10;;;;;;;;;;4933642;29;20035;-80
2023/06/23 11:40:01;;;;;;;11.32;10.63;;;;;;;;;;4992556;28;20054;-80
2023/06/23 11:42:31;;;;;;;10.98;10.13;;;;;;;;;;5012820;28;20033;-80
2023/06/23 11:44:57;;;;;;;9.75;9.05;;;;;;;;;;5012774;28;20887;-79
2023/06/23 11:47:24;;;;;;;11.15;10.45;;;;;;;;;;4994636;28;20034;-81
2023/06/23 11:49:50;;;;;;;11.00;10.20;;;;;;;;;;5011248;28;20133;-82
2023/06/23 11:52:17;;;;;;;10.30;9.43;;;;;;;;;;5012152;28;20040;-82
2023/06/23 11:54:44;;;;;;;9.05;8.45;;;;;;;;;;4994487;28;21148;-81
2023/06/23 11:57:10;;;;;;;9.50;8.57;;;;;;;;;;5014036;28;20033;-83
2023/06/23 11:59:36;;;;;;;9.35;8.55;;;;;;;;;;5015394;28;20042;-81
2023/06/23 12:02:03;;;;;;;9.23;8.63;;;;;;;;;;5013132;28;20041;-83
2023/06/23 12:04:29;;;;;;;8.98;8.38;;;;;;;;;;5013280;28;20042;-82
2023/06/23 12:06:56;;;;;;;8.48;7.88;;;;;;;;;;5013330;28;20048;-82
2023/06/23 12:09:22;;;;;;;8.98;8.23;;;;;;;;;;5012821;28;20129;-82
2023/06/23 12:11:48;;;;;;;8.70;8.10;;;;;;;;;;5011314;28;20034;-81
2023/06/23 12:14:14;;;;;;;8.02;7.43;;;;;;;;;;5013368;28;20603;-83
2023/06/23 12:16:40;;;;;;;7.90;7.20;;;;;;;;;;5014222;28;20500;-83
2023/06/23 12:19:06;;;;;;;7.78;7.13;;;;;;;;;;5011925;28;20046;-84
2023/06/23 12:21:35;;;;;;;7.40;6.72;;;;;;;;;;5013092;28;20034;-82
2023/06/23 12:24:01;;;;;;;7.72;7.13;;;;;;;;;;5013634;28;20042;-82
2023/06/23 12:26:27;;;;;;;7.35;6.75;;;;;;;;;;5013487;28;20041;-83
2023/06/23 12:29:07;;;;;;;7.57;6.95;;;;;;;;;;5017918;28;20539;-82
2023/06/23 12:31:33;;;;;;;8.80;8.20;;;;;;;;;;5032847;28;20070;-86
2023/06/23 12:34:02;;;;;;;7.22;6.72;;;;;;;;;;5035762;28;20032;-84
2023/06/23 12:36:28;;;;;;;9.02;8.35;;;;;;;;;;5032950;28;20048;-87
2023/06/23 12:38:55;;;;;;;9.13;8.40;;;;;;;;;;5029916;28;20061;-84
2023/06/23 12:41:24;;;;;;;9.27;8.68;;;;;;;;;;5029082;28;20041;-85
2023/06/23 12:43:51;;;;;;;9.98;9.18;;;;;;;;;;5024058;28;20526;-84
2023/06/23 12:46:16;;;;;;;10.52;9.73;;;;;;;;;;5023351;28;20041;-84
2023/06/23 12:48:43;;;;;;;11.27;10.35;;;;;;;;;;5023122;28;20138;-86
2023/06/23 12:51:09;;;;;;;10.50;9.60;;;;;;;;;;5008134;28;20034;-83
2023/06/23 12:53:35;;;;;;;10.30;9.50;;;;;;;;;;5032475;28;20076;-84
2023/06/23 12:56:01;;;;;;;17.65;15.98;;;;;;;;;;5032965;28;20049;-85
2023/06/23 12:58:27;;;;;;;7.65;7.05;;;;;;;;;;5030731;28;20040;-85
2023/06/23 13:00:53;;;;;;;10.68;8.95;;;;;;;;;;5024933;28;20107;-84
2023/06/23 13:03:19;;;;;;;10.10;9.30;;;;;;;;;;5024511;28;20034;-83
2023/06/23 13:05:45;;;;;;;11.40;10.50;;;;;;;;;;5026445;28;20103;-85
2023/06/23 13:08:13;;;;;;;10.95;9.85;;;;;;;;;;5027914;28;20121;-86
2023/06/23 13:10:40;;;;;;;10.85;10.00;;;;;;;;;;5025323;28;20037;-84
2023/06/23 13:13:06;;;;;;;10.13;9.32;;;;;;;;;;5025285;28;20030;-85
2023/06/23 13:15:34;;;;;;;12.13;11.13;;;;;;;;;;5026418;28;20096;-85
2023/06/23 13:18:00;;;;;;;10.40;9.50;;;;;;;;;;5026659;28;20439;-86
2023/06/23 13:20:26;;;;;;;9.05;8.35;;;;;;;;;;5029252;28;20032;-86
2023/06/23 13:22:52;;;;;;;13.82;12.73;;;;;;;;;;5033273;28;20053;-86
2023/06/23 13:25:18;;;;;;;12.75;11.55;;;;;;;;;;5033429;28;20017;-86
2023/06/23 13:27:46;;;;;;;13.63;12.52;;;;;;;;;;5029100;28;20041;-86
2023/06/23 13:30:12;;;;;;;13.25;12.00;;;;;;;;;;5031391;28;20637;-85
2023/06/23 13:32:40;;;;;;;13.10;11.80;;;;;;;;;;5031732;28;20030;-80
2023/06/23 13:35:07;;;;;;;14.90;13.55;;;;;;;;;;5033932;28;20049;-88
2023/06/23 13:37:34;;;;;;;13.00;11.90;;;;;;;;;;5034475;28;20098;-87
2023/06/23 13:40:04;;;;;;;10.07;9.27;;;;;;;;;;5036253;28;20056;-85
2023/06/23 13:42:31;;;;;;;12.50;10.88;;;;;;;;;;5034148;28;20025;-86
2023/06/23 13:44:57;;;;;;;12.32;10.57;;;;;;;;;;5016166;28;20042;-87
2023/06/23 13:47:23;;;;;;;10.95;9.85;;;;;;;;;;5034281;28;20057;-86
2023/06/23 13:49:49;;;;;;;10.60;9.80;;;;;;;;;;5034017;28;20064;-85
2023/06/23 13:52:15;;;;;;;11.75;10.55;;;;;;;;;;5016447;28;20030;-86
2023/06/23 13:54:41;;;;;;;11.63;10.45;;;;;;;;;;5038162;28;20034;-82
2023/06/23 13:57:07;;;;;;;11.55;10.63;;;;;;;;;;5038573;28;20034;-87
2023/06/23 13:59:33;;;;;;;11.25;10.32;;;;;;;;;;5038405;28;20030;-86
2023/06/23 14:02:00;;;;;;;11.18;10.27;;;;;;;;;;5035482;28;20034;-86
2023/06/23 14:04:26;;;;;;;11.52;10.63;;;;;;;;;;5036312;28;20019;-86
2023/06/23 14:06:52;;;;;;;12.43;11.32;;;;;;;;;;5039262;28;20033;-87
2023/06/23 14:09:18;;;;;;;17.50;15.80;;;;;;;;;;5037924;28;20025;-86
2023/06/23 14:11:44;;;;;;;17.70;16.05;;;;;;;;;;5195044;23;20037;-85
2023/06/23 14:14:10;;;;;;;20.55;17.23;;;;;;;;;;5129360;23;20073;-85
2023/06/23 14:16:36;;;;;;;17.40;15.73;;;;;;;;;;5019011;28;20050;-86
2023/06/23 14:19:05;;;;;;;18.75;16.23;;;;;;;;;;5103411;23;20027;-74
2023/06/23 14:21:31;;;;;;;21.80;16.35;;;;;;;;;;5000516;28;20027;-85
2023/06/23 14:23:57;;;;;;;17.33;15.82;;;;;;;;;;5014550;28;20042;-85
2023/06/23 14:26:24;;;;;;;20.17;18.25;;;;;;;;;;5012510;28;20125;-85
2023/06/23 14:28:50;;;;;;;21.67;18.27;;;;;;;;;;5014409;28;20034;-87
2023/06/23 14:31:16;;;;;;;22.33;18.15;;;;;;;;;;5014202;28;20033;-85
2023/06/23 14:33:42;;;;;;;19.25;17.15;;;;;;;;;;5013570;28;20073;-85
2023/06/23 14:36:08;;;;;;;20.73;16.52;;;;;;;;;;5014605;28;20040;-84